createdAt,value
2022-10-21T00:01:50.031Z,6.63
2022-10-21T00:04:16.635Z,5.67
2022-10-21T00:06:43.202Z,6.07
2022-10-21T00:09:09.907Z,9.80
2022-10-21T00:11:36.517Z,7.30
2022-10-21T00:14:03.683Z,7.90
2022-10-21T00:16:30.279Z,7.23
2022-10-21T00:18:56.894Z,7.87
2022-10-21T00:21:23.662Z,10.07
2022-10-21T00:23:50.315Z,8.67
2022-10-21T00:26:17.972Z,10.77
2022-10-21T00:28:44.891Z,8.17
2022-10-21T00:31:13.335Z,8.00
2022-10-21T00:33:39.992Z,8.23
2022-10-21T00:36:07.904Z,7.47
2022-10-21T00:38:35.674Z,6.67
2022-10-21T00:41:02.730Z,6.83
2022-10-21T00:43:30.071Z,5.00
2022-10-21T00:46:02.276Z,10.47
2022-10-21T00:48:33.870Z,5.07
2022-10-21T00:51:05.992Z,6.90
2022-10-21T00:53:35.324Z,4.87
2022-10-21T00:56:15.599Z,11.53
2022-10-21T00:58:44.614Z,9.60
2022-10-21T01:01:11.343Z,10.70
2022-10-21T01:03:37.947Z,8.53
2022-10-21T01:06:09.441Z,9.63
2022-10-21T01:08:37.245Z,9.43
2022-10-21T01:11:05.270Z,8.83
2022-10-21T01:13:44.432Z,9.80
2022-10-21T01:16:22.757Z,5.77
2022-10-21T01:19:09.481Z,6.50
2022-10-21T01:21:49.803Z,6.07
2022-10-21T01:24:41.272Z,7.73
2022-10-21T01:27:23.958Z,9.77
2022-10-21T01:30:02.694Z,8.00
2022-10-21T01:32:55.540Z,7.43
2022-10-21T01:35:28.790Z,10.80
2022-10-21T01:38:08.318Z,9.60
2022-10-21T01:40:43.545Z,18.67
2022-10-21T01:43:19.699Z,7.77
2022-10-21T01:46:00.937Z,11.03
2022-10-21T01:48:39.939Z,9.87
2022-10-21T01:51:09.498Z,9.00
2022-10-21T01:53:45.008Z,10.00
2022-10-21T01:56:14.080Z,8.23
2022-10-21T01:58:43.308Z,9.37
2022-10-21T02:01:12.765Z,11.03
2022-10-21T02:03:42.644Z,9.60
2022-10-21T02:06:09.437Z,7.40
2022-10-21T02:08:36.178Z,11.40
2022-10-21T02:11:07.123Z,10.33
2022-10-21T02:13:47.802Z,11.60
2022-10-21T02:16:18.822Z,10.30
2022-10-21T02:18:45.366Z,11.17
2022-10-21T02:21:20.503Z,9.00
2022-10-21T02:24:04.826Z,8.33
2022-10-21T02:26:31.552Z,8.23
2022-10-21T02:28:59.608Z,11.37
2022-10-21T02:31:39.706Z,7.13
2022-10-21T02:34:30.451Z,7.67
2022-10-21T02:37:28.268Z,6.80
2022-10-21T02:40:20.745Z,8.37
2022-10-21T02:42:54.046Z,9.10
2022-10-21T02:45:22.322Z,11.07
2022-10-21T02:47:50.387Z,7.43
2022-10-21T02:50:17.261Z,9.83
2022-10-21T02:52:43.817Z,8.03
2022-10-21T02:55:10.421Z,8.60
2022-10-21T02:57:37.232Z,9.03
2022-10-21T03:00:05.445Z,6.80
2022-10-21T03:02:32.058Z,7.60
2022-10-21T03:04:58.694Z,8.13
2022-10-21T03:07:25.337Z,6.40
2022-10-21T03:09:51.949Z,8.50
2022-10-21T03:12:18.486Z,6.50
2022-10-21T03:14:45.046Z,10.27
2022-10-21T03:17:11.601Z,11.90
2022-10-21T03:19:38.178Z,7.73
2022-10-21T03:22:04.737Z,7.83
2022-10-21T03:24:31.411Z,7.57
2022-10-21T03:26:57.958Z,7.47
2022-10-21T03:29:24.691Z,8.30
2022-10-21T03:31:51.238Z,6.67
2022-10-21T03:34:17.845Z,8.37
2022-10-21T03:36:44.493Z,8.57
2022-10-21T03:39:12.265Z,8.90
2022-10-21T03:41:39.054Z,10.77
2022-10-21T03:44:05.812Z,7.47
2022-10-21T03:46:32.415Z,11.17
2022-10-21T03:49:03.014Z,8.17
2022-10-21T03:51:33.369Z,10.23
2022-10-21T03:54:00.030Z,6.90
2022-10-21T03:56:26.717Z,7.87
2022-10-21T03:58:57.798Z,9.63
2022-10-21T04:01:25.827Z,9.80
2022-10-21T04:03:52.626Z,7.33
2022-10-21T04:06:19.226Z,9.23
2022-10-21T04:08:45.989Z,6.70
2022-10-21T04:11:12.738Z,12.47
2022-10-21T04:13:39.355Z,9.43
2022-10-21T04:16:08.136Z,7.30
2022-10-21T04:18:34.783Z,9.07
2022-10-21T04:21:01.440Z,10.00
2022-10-21T04:23:28.019Z,8.17
2022-10-21T04:25:54.570Z,7.47
2022-10-21T04:28:21.195Z,7.73
2022-10-21T04:30:50.067Z,9.87
2022-10-21T04:33:16.648Z,9.20
2022-10-21T04:35:43.267Z,6.43
2022-10-21T04:38:09.888Z,7.43
2022-10-21T04:40:36.668Z,8.40
2022-10-21T04:43:03.670Z,7.90
2022-10-21T04:45:30.267Z,6.43
2022-10-21T04:47:56.849Z,7.70
2022-10-21T04:50:23.557Z,6.83
2022-10-21T04:52:50.162Z,10.00
2022-10-21T04:55:16.783Z,9.10
2022-10-21T04:57:43.386Z,9.67
2022-10-21T05:00:10.795Z,22.17
2022-10-21T05:02:37.625Z,10.83
2022-10-21T05:05:04.722Z,11.50
2022-10-21T05:07:31.329Z,17.20
2022-10-21T05:09:57.913Z,15.50
2022-10-21T05:12:24.543Z,16.07
2022-10-21T05:14:51.148Z,15.60
2022-10-21T05:17:17.736Z,14.87
2022-10-21T05:19:44.295Z,20.83
2022-10-21T05:22:12.655Z,19.97
2022-10-21T05:24:39.311Z,11.30
2022-10-21T05:27:05.887Z,13.33
2022-10-21T05:29:32.485Z,9.93
2022-10-21T05:31:59.090Z,12.17
2022-10-21T05:34:25.687Z,11.30
2022-10-21T05:36:52.274Z,12.83
2022-10-21T05:39:18.848Z,11.70
2022-10-21T05:41:47.926Z,20.63
2022-10-21T05:44:15.171Z,6.93
2022-10-21T05:46:41.864Z,13.20
2022-10-21T05:49:08.920Z,9.70
2022-10-21T05:51:35.470Z,11.13
2022-10-21T05:54:03.934Z,15.97
2022-10-21T05:56:30.511Z,14.40
2022-10-21T05:58:57.111Z,12.70
2022-10-21T06:01:23.785Z,12.60
2022-10-21T06:03:50.473Z,10.10
2022-10-21T06:06:17.141Z,9.57
2022-10-21T06:08:43.843Z,8.70
2022-10-21T06:11:12.786Z,12.63
2022-10-21T06:13:40.008Z,13.33
2022-10-21T06:16:07.588Z,13.97
2022-10-21T06:18:34.417Z,10.00
2022-10-21T06:21:00.998Z,14.37
2022-10-21T06:23:28.291Z,14.17
2022-10-21T06:25:59.236Z,16.80
2022-10-21T06:28:27.390Z,16.30
2022-10-21T06:30:54.778Z,12.03
2022-10-21T06:33:26.186Z,10.30
2022-10-21T06:35:53.962Z,18.33
2022-10-21T06:38:20.585Z,11.50
2022-10-21T06:40:48.827Z,14.23
2022-10-21T06:43:16.315Z,17.17
2022-10-21T06:45:42.972Z,14.93
2022-10-21T06:48:09.695Z,15.00
2022-10-21T06:50:39.761Z,14.27
2022-10-21T06:53:06.481Z,18.00
2022-10-21T06:55:33.121Z,12.80
2022-10-21T06:58:00.416Z,14.60
2022-10-21T07:00:27.436Z,18.10
2022-10-21T07:02:54.098Z,18.90
2022-10-21T07:05:20.840Z,17.03
2022-10-21T07:07:47.503Z,15.20
2022-10-21T07:10:14.251Z,18.53
2022-10-21T07:12:41.059Z,17.33
2022-10-21T07:15:08.214Z,14.00
2022-10-21T07:17:34.816Z,16.30
2022-10-21T07:20:01.394Z,17.77
2022-10-21T07:22:31.910Z,15.90
2022-10-21T07:24:58.671Z,13.67
2022-10-21T07:27:25.363Z,17.37
2022-10-21T07:29:52.067Z,11.83
2022-10-21T07:32:18.689Z,14.17
2022-10-21T07:34:45.267Z,16.90
2022-10-21T07:37:11.859Z,20.87
2022-10-21T07:39:38.579Z,16.80
2022-10-21T07:42:05.254Z,13.47
2022-10-21T07:44:31.892Z,15.43
2022-10-21T07:46:58.617Z,14.33
2022-10-21T07:49:25.272Z,19.57
2022-10-21T07:51:51.893Z,18.13
2022-10-21T07:54:20.637Z,33.23
2022-10-21T07:56:52.219Z,19.27
2022-10-21T07:59:20.685Z,21.83
2022-10-21T08:04:21.523Z,16.03
2022-10-21T08:06:49.098Z,16.87
2022-10-21T08:09:17.218Z,19.60
2022-10-21T08:11:44.504Z,17.20
2022-10-21T08:14:11.883Z,25.27
2022-10-21T08:16:39.287Z,15.10
2022-10-21T08:19:07.400Z,13.83
2022-10-21T08:21:34.510Z,19.23
2022-10-21T08:24:05.043Z,18.60
2022-10-21T08:26:31.736Z,22.37
2022-10-21T08:31:30.095Z,19.63
2022-10-21T08:33:56.719Z,17.60
2022-10-21T08:36:25.334Z,18.77
2022-10-21T08:38:52.980Z,15.17
2022-10-21T08:41:31.470Z,16.97
2022-10-21T08:44:05.246Z,20.43
2022-10-21T08:46:49.783Z,17.90
2022-10-21T08:49:24.129Z,24.87
2022-10-21T08:52:03.557Z,19.30
2022-10-21T08:54:45.053Z,17.63
2022-10-21T08:57:12.489Z,17.63
2022-10-21T08:59:42.815Z,15.27
2022-10-21T09:02:12.380Z,14.47
2022-10-21T09:04:41.834Z,20.43
2022-10-21T09:07:20.245Z,15.27
2022-10-21T09:09:54.457Z,16.27
2022-10-21T09:12:37.948Z,24.00
2022-10-21T09:15:27.855Z,15.37
2022-10-21T09:18:09.259Z,19.90
2022-10-21T09:21:05.953Z,17.37
2022-10-21T09:23:42.767Z,18.13
2022-10-21T09:26:09.349Z,16.30
2022-10-21T09:28:37.070Z,18.37
2022-10-21T09:31:15.532Z,15.17
2022-10-21T09:33:46.929Z,16.83
2022-10-21T09:36:22.101Z,18.43
2022-10-21T09:38:53.982Z,17.30
2022-10-21T09:41:24.619Z,25.37
2022-10-21T09:43:51.344Z,17.20
2022-10-21T09:46:18.996Z,14.90
2022-10-21T09:49:25.894Z,14.67
2022-10-21T09:51:40.434Z,12.30
2022-10-21T09:54:14.951Z,16.50
2022-10-21T09:56:50.283Z,19.10
2022-10-21T09:59:19.552Z,14.13
2022-10-21T10:01:47.798Z,17.37
2022-10-21T10:04:30.632Z,17.03
2022-10-21T10:07:00.443Z,20.17
2022-10-21T10:09:34.420Z,21.73
2022-10-21T10:12:21.717Z,15.80
2022-10-21T10:14:48.918Z,18.63
2022-10-21T10:17:24.235Z,18.90
2022-10-21T10:20:06.197Z,13.83
2022-10-21T10:22:33.933Z,16.40
2022-10-21T10:25:17.909Z,17.57
2022-10-21T10:27:47.272Z,17.13
2022-10-21T10:30:15.248Z,15.67
2022-10-21T10:32:42.385Z,14.77
2022-10-21T10:35:35.758Z,14.93
2022-10-21T10:38:04.239Z,15.07
2022-10-21T10:40:42.180Z,16.37
2022-10-21T10:43:28.282Z,17.87
2022-10-21T10:45:58.541Z,12.73
2022-10-21T10:48:46.805Z,11.77
2022-10-21T10:51:24.193Z,22.90
2022-10-21T10:54:01.749Z,19.77
2022-10-21T10:56:31.167Z,16.30
2022-10-21T10:59:12.808Z,15.43
2022-10-21T11:01:49.628Z,14.03
2022-10-21T11:04:30.862Z,12.57
2022-10-21T11:07:05.375Z,15.50
2022-10-21T11:09:34.337Z,17.60
2022-10-21T11:12:05.548Z,16.20
2022-10-21T11:14:32.192Z,11.47
2022-10-21T11:17:11.819Z,14.93
2022-10-21T11:19:57.088Z,13.27
2022-10-21T11:22:42.045Z,14.77
2022-10-21T11:25:27.303Z,13.97
2022-10-21T11:28:02.872Z,13.33
2022-10-21T11:30:57.123Z,12.90
2022-10-21T11:33:42.121Z,16.63
2022-10-21T11:36:40.754Z,12.40
2022-10-21T11:39:32.224Z,14.63
2022-10-21T11:41:58.827Z,14.00
2022-10-21T11:44:29.425Z,11.90
2022-10-21T11:47:08.419Z,16.37
2022-10-21T11:49:56.818Z,11.70
2022-10-21T11:53:11.612Z,16.20
2022-10-21T11:56:10.303Z,14.37
2022-10-21T11:58:45.685Z,14.20
2022-10-21T12:01:23.847Z,14.53
2022-10-21T12:04:25.029Z,14.57
2022-10-21T12:07:00.524Z,14.90
2022-10-21T12:09:38.313Z,13.70
2022-10-21T12:12:15.071Z,11.00
2022-10-21T12:14:54.803Z,16.43
2022-10-21T12:17:23.682Z,12.97
2022-10-21T12:19:57.035Z,10.67
2022-10-21T12:22:26.714Z,14.10
2022-10-21T12:24:58.454Z,14.73
2022-10-21T12:27:27.713Z,12.87
2022-10-21T12:30:38.143Z,16.80
2022-10-21T12:33:48.087Z,9.50
2022-10-21T12:36:17.493Z,13.33
2022-10-21T12:38:57.441Z,12.90
2022-10-21T12:41:23.992Z,12.93
2022-10-21T12:44:03.143Z,12.43
2022-10-21T12:46:48.011Z,10.83
2022-10-21T12:49:19.987Z,11.07
2022-10-21T12:52:25.062Z,11.17
2022-10-21T12:55:02.050Z,14.17
2022-10-21T12:57:42.256Z,13.23
2022-10-21T13:00:22.204Z,12.67
2022-10-21T13:03:14.307Z,14.60
2022-10-21T13:05:40.875Z,14.83
2022-10-21T13:08:19.302Z,12.37
2022-10-21T13:11:06.797Z,13.60
2022-10-21T13:13:38.069Z,12.80
2022-10-21T13:16:19.755Z,10.80
2022-10-21T13:19:05.057Z,16.30
2022-10-21T13:21:45.078Z,11.00
2022-10-21T13:24:11.605Z,15.10
2022-10-21T13:26:57.134Z,13.53
2022-10-21T13:29:29.475Z,12.10
2022-10-21T13:32:38.425Z,11.87
2022-10-21T13:35:14.511Z,15.33
2022-10-21T13:37:51.651Z,16.77
2022-10-21T13:40:21.046Z,16.70
2022-10-21T13:43:13.061Z,14.67
2022-10-21T13:45:47.241Z,12.50
2022-10-21T13:48:17.171Z,11.43
2022-10-21T13:50:46.922Z,13.73
2022-10-21T13:53:29.147Z,14.10
2022-10-21T13:55:59.353Z,11.40
2022-10-21T13:58:27.762Z,11.83
2022-10-21T14:00:57.956Z,12.20
2022-10-21T14:03:26.464Z,15.60
2022-10-21T14:05:59.306Z,14.00
2022-10-21T14:08:28.359Z,18.53
2022-10-21T14:10:58.903Z,16.73
2022-10-21T14:13:29.037Z,12.87
2022-10-21T14:15:56.356Z,13.53
2022-10-21T14:18:31.239Z,12.27
2022-10-21T14:21:00.944Z,15.87
2022-10-21T14:23:29.575Z,11.70
2022-10-21T14:26:04.880Z,17.33
2022-10-21T14:28:33.273Z,12.63
2022-10-21T14:31:01.429Z,10.57
2022-10-21T14:33:29.454Z,13.63
2022-10-21T14:36:16.262Z,18.53
2022-10-21T14:39:06.724Z,11.70
2022-10-21T14:41:40.417Z,13.50
2022-10-21T14:44:28.390Z,15.10
2022-10-21T14:46:55.288Z,14.67
2022-10-21T14:49:22.320Z,13.33
2022-10-21T14:51:50.221Z,20.10
2022-10-21T14:54:45.757Z,20.70
2022-10-21T14:57:26.856Z,11.70
2022-10-21T14:59:54.737Z,11.33
2022-10-21T15:02:25.623Z,13.87
2022-10-21T15:05:03.602Z,13.80
2022-10-21T15:07:38.740Z,9.77
2022-10-21T15:10:05.490Z,12.60
2022-10-21T15:12:53.360Z,11.73
2022-10-21T15:15:39.847Z,11.80
2022-10-21T15:18:13.857Z,13.50
2022-10-21T15:21:16.532Z,13.13
2022-10-21T15:24:05.774Z,16.00
2022-10-21T15:26:48.754Z,18.60
2022-10-21T15:29:25.189Z,17.40
2022-10-21T15:31:54.606Z,16.27
2022-10-21T15:34:21.393Z,20.93
2022-10-21T15:36:48.105Z,21.93
2022-10-21T15:39:14.841Z,12.17
2022-10-21T15:41:42.004Z,10.43
2022-10-21T15:44:20.614Z,14.97
2022-10-21T15:46:50.131Z,13.37
2022-10-21T15:49:22.768Z,12.30
2022-10-21T15:51:50.112Z,16.27
2022-10-21T15:54:18.257Z,17.47
2022-10-21T15:56:47.638Z,15.17
2022-10-21T15:59:23.172Z,12.70
2022-10-21T16:01:50.230Z,13.43
2022-10-21T16:04:17.861Z,15.13
2022-10-21T16:06:48.854Z,9.73
2022-10-21T16:09:21.030Z,10.10
2022-10-21T16:11:58.985Z,12.00
2022-10-21T16:14:29.548Z,8.07
2022-10-21T16:16:58.353Z,25.63
2022-10-21T16:19:25.268Z,10.23
2022-10-21T16:21:51.954Z,11.70
2022-10-21T16:24:18.887Z,13.20
2022-10-21T16:26:47.895Z,13.33
2022-10-21T16:29:25.554Z,12.67
2022-10-21T16:31:52.741Z,18.20
2022-10-21T16:34:19.900Z,16.00
2022-10-21T16:36:46.600Z,14.90
2022-10-21T16:39:22.117Z,10.90
2022-10-21T16:41:49.071Z,11.17
2022-10-21T16:44:15.802Z,12.73
2022-10-21T16:46:52.607Z,17.43
2022-10-21T16:49:24.702Z,9.63
2022-10-21T16:51:52.948Z,19.83
2022-10-21T16:54:21.396Z,18.33
2022-10-21T16:56:48.439Z,20.03
2022-10-21T16:59:15.048Z,18.43
2022-10-21T17:01:41.872Z,17.07
2022-10-21T17:04:08.607Z,17.30
2022-10-21T17:06:35.234Z,17.80
2022-10-21T17:09:02.193Z,17.03
2022-10-21T17:11:34.364Z,17.27
2022-10-21T17:14:02.935Z,16.10
2022-10-21T17:16:29.830Z,15.13
2022-10-21T17:18:56.552Z,14.40
2022-10-21T17:21:31.723Z,16.60
2022-10-21T17:24:00.875Z,14.77
2022-10-21T17:26:30.197Z,20.47
2022-10-21T17:28:57.481Z,16.53
2022-10-21T17:31:26.954Z,19.63
2022-10-21T17:33:57.057Z,24.63
2022-10-21T17:36:23.751Z,16.83
2022-10-21T17:38:50.838Z,27.37
2022-10-21T17:41:20.476Z,24.23
2022-10-21T17:44:02.498Z,22.40
2022-10-21T17:46:29.141Z,20.77
2022-10-21T17:48:57.591Z,28.97
2022-10-21T17:51:25.586Z,23.70
2022-10-21T17:53:53.974Z,20.97
2022-10-21T17:56:21.016Z,22.13
2022-10-21T17:58:53.255Z,26.33
2022-10-21T18:01:22.040Z,18.47
2022-10-21T18:03:48.933Z,15.03
2022-10-21T18:06:16.425Z,19.50
2022-10-21T18:08:43.109Z,16.30
2022-10-21T18:11:14.825Z,16.13
2022-10-21T18:13:42.798Z,12.63
2022-10-21T18:16:17.963Z,15.53
2022-10-21T18:18:45.712Z,14.13
2022-10-21T18:21:15.533Z,19.80
2022-10-21T18:23:44.622Z,21.43
2022-10-21T18:26:14.284Z,13.10
2022-10-21T18:28:40.898Z,18.37
2022-10-21T18:31:08.171Z,15.97
2022-10-21T18:33:34.929Z,18.47
2022-10-21T18:36:10.026Z,12.63
2022-10-21T18:38:36.861Z,18.87
2022-10-21T18:41:19.398Z,12.80
2022-10-21T18:43:48.989Z,12.37
2022-10-21T18:46:15.917Z,15.87
2022-10-21T18:48:42.761Z,15.03
2022-10-21T18:51:11.664Z,14.93
2022-10-21T18:53:39.642Z,14.90
2022-10-21T18:56:08.026Z,19.63
2022-10-21T18:58:36.397Z,21.67
2022-10-21T19:01:04.482Z,19.17
2022-10-21T19:03:31.610Z,16.50
2022-10-21T19:06:13.658Z,19.57
2022-10-21T19:08:40.398Z,18.07
2022-10-21T19:11:06.965Z,20.47
2022-10-21T19:13:33.521Z,23.77
2022-10-21T19:16:00.201Z,24.00
2022-10-21T19:18:27.610Z,21.77
2022-10-21T19:20:54.252Z,24.47
2022-10-21T19:23:20.838Z,24.47
2022-10-21T19:25:47.413Z,21.10
2022-10-21T19:28:13.951Z,25.10
2022-10-21T19:30:40.748Z,19.50
2022-10-21T19:33:07.290Z,17.93
2022-10-21T19:35:33.962Z,24.53
2022-10-21T19:38:03.240Z,20.33
2022-10-21T19:40:34.595Z,23.20
2022-10-21T19:43:01.156Z,16.27
2022-10-21T19:45:27.798Z,20.40
2022-10-21T19:47:54.415Z,20.60
2022-10-21T19:50:21.003Z,27.93
2022-10-21T19:52:47.642Z,18.40
2022-10-21T19:55:14.361Z,18.17
2022-10-21T19:57:41.108Z,20.53
2022-10-21T20:00:08.923Z,18.50
2022-10-21T20:02:35.556Z,16.20
2022-10-21T20:05:02.221Z,16.00
2022-10-21T20:07:28.893Z,21.40
2022-10-21T20:09:55.482Z,19.63
2022-10-21T20:12:22.017Z,17.97
2022-10-21T20:14:48.691Z,22.23
2022-10-21T20:17:17.458Z,15.37
2022-10-21T20:19:48.706Z,16.13
2022-10-21T20:22:15.337Z,16.73
2022-10-21T20:24:45.653Z,15.90
2022-10-21T20:27:13.283Z,17.37
2022-10-21T20:29:39.817Z,24.93
2022-10-21T20:32:06.446Z,25.23
2022-10-21T20:34:34.188Z,19.87
2022-10-21T20:37:03.982Z,23.23
2022-10-21T20:39:30.568Z,23.00
2022-10-21T20:41:57.139Z,22.83
2022-10-21T20:44:23.726Z,16.90
2022-10-21T20:46:50.298Z,25.70
2022-10-21T20:49:16.868Z,20.57
2022-10-21T20:51:43.564Z,23.73
2022-10-21T20:54:18.498Z,18.73
2022-10-21T20:56:46.353Z,20.00
2022-10-21T20:59:20.112Z,18.57
2022-10-21T21:01:47.425Z,22.73
2022-10-21T21:04:16.022Z,22.60
2022-10-21T21:06:47.932Z,16.53
2022-10-21T21:12:03.851Z,22.77
2022-10-21T21:14:31.320Z,19.10
2022-10-21T21:16:58.198Z,22.67
2022-10-21T21:19:25.796Z,22.27
2022-10-21T21:21:52.619Z,21.70
2022-10-21T21:24:19.621Z,20.50
2022-10-21T21:26:46.774Z,19.07
2022-10-21T21:29:13.771Z,18.83
2022-10-21T21:31:41.566Z,19.33
2022-10-21T21:34:09.525Z,17.33
2022-10-21T21:36:36.945Z,21.23
2022-10-21T21:39:05.242Z,16.90
2022-10-21T21:41:31.914Z,20.30
2022-10-21T21:43:58.599Z,18.33
2022-10-21T21:46:26.040Z,16.73
2022-10-21T21:48:59.606Z,18.40
2022-10-21T21:51:30.333Z,17.00
2022-10-21T21:53:57.906Z,16.33
2022-10-21T21:56:25.711Z,16.13
2022-10-21T21:58:55.025Z,14.17
2022-10-21T22:01:24.003Z,14.00
2022-10-21T22:03:51.972Z,14.67
2022-10-21T22:08:56.927Z,16.60
2022-10-21T22:11:25.982Z,17.77
2022-10-21T22:13:53.014Z,16.00
2022-10-21T22:16:22.312Z,15.30
2022-10-21T22:18:49.171Z,12.47
2022-10-21T22:21:18.055Z,19.97
2022-10-21T22:23:45.695Z,13.40
2022-10-21T22:26:12.965Z,15.30
2022-10-21T22:28:40.302Z,15.90
2022-10-21T22:31:13.138Z,15.27
2022-10-21T22:33:40.269Z,17.50
2022-10-21T22:36:08.239Z,15.13
2022-10-21T22:38:35.116Z,13.63
2022-10-21T22:41:06.094Z,13.20
2022-10-21T22:43:34.024Z,25.70
2022-10-21T22:46:09.842Z,18.53
2022-10-21T22:48:47.371Z,17.17
2022-10-21T22:51:13.978Z,14.97
2022-10-21T22:53:40.582Z,15.47
2022-10-21T22:56:07.366Z,13.40
2022-10-21T22:58:33.990Z,16.30
2022-10-21T23:01:07.273Z,14.23
2022-10-21T23:03:33.926Z,16.10
2022-10-21T23:06:00.533Z,12.40
2022-10-21T23:08:27.312Z,12.93
2022-10-21T23:10:54.363Z,12.70
2022-10-21T23:13:21.125Z,12.63
2022-10-21T23:15:48.063Z,12.87
2022-10-21T23:18:14.892Z,14.27
2022-10-21T23:20:41.806Z,12.37
2022-10-21T23:23:09.086Z,13.03
2022-10-21T23:25:36.073Z,16.77
2022-10-21T23:28:03.882Z,13.70
2022-10-21T23:30:30.502Z,10.87
2022-10-21T23:32:57.094Z,15.23
2022-10-21T23:35:23.847Z,18.27
2022-10-21T23:37:50.443Z,17.83
2022-10-21T23:40:17.947Z,12.70
2022-10-21T23:42:44.543Z,26.67
2022-10-21T23:45:11.698Z,21.50
2022-10-21T23:47:39.476Z,19.73
2022-10-21T23:50:08.124Z,19.23
2022-10-21T23:52:35.363Z,15.87
2022-10-21T23:55:02.691Z,16.40
2022-10-21T23:57:29.335Z,19.90
2022-10-21T23:59:55.885Z,19.80
